Time;durP1;ratioP1;P1;durP2;ratioP2;P2;SDS_P1;SDS_P2;PMS_P1;PMS_P2;Temp;Humidity;BMP_temperature;BMP_pressure;BME280_temperature;BME280_humidity;BME280_pressure;Samples;Min_cycle;Max_cycle;Signal;HPM_P1;HPM_P2
2021/06/15 00:00:51;;;;;;;4.35;1.30;;;;;;;;;;5098386;28;20036;-81
2021/06/15 00:03:18;;;;;;;2.25;1.60;;;;;;;;;;5098284;28;20024;-81
2021/06/15 00:05:44;;;;;;;5.70;1.65;;;;;;;;;;5098223;28;20035;-82
2021/06/15 00:08:10;;;;;;;3.17;1.38;;;;;;;;;;5098206;28;20031;-82
2021/06/15 00:10:36;;;;;;;3.95;1.63;;;;;;;;;;5098383;28;20126;-81
2021/06/15 00:13:02;;;;;;;2.35;1.60;;;;;;;;;;5097992;28;20016;-81
2021/06/15 00:15:28;;;;;;;3.17;1.30;;;;;;;;;;5096937;28;20043;-81
2021/06/15 00:17:55;;;;;;;2.35;1.70;;;;;;;;;;5098197;28;20024;-81
2021/06/15 00:20:21;;;;;;;2.70;1.65;;;;;;;;;;5097992;28;20429;-81
2021/06/15 00:22:48;;;;;;;2.70;1.40;;;;;;;;;;5098091;28;20028;-82
2021/06/15 00:25:15;;;;;;;2.25;1.58;;;;;;;;;;5098068;28;20027;-81
2021/06/15 00:27:41;;;;;;;2.47;1.40;;;;;;;;;;5096712;28;20036;-82
2021/06/15 00:30:09;;;;;;;3.08;1.50;;;;;;;;;;5097762;28;20023;-82
2021/06/15 00:32:35;;;;;;;2.75;1.60;;;;;;;;;;5097823;28;20405;-82
2021/06/15 00:35:01;;;;;;;2.65;1.40;;;;;;;;;;5097842;28;20354;-82
2021/06/15 00:37:28;;;;;;;4.05;1.70;;;;;;;;;;5096874;28;20043;-82
2021/06/15 00:39:54;;;;;;;4.43;1.52;;;;;;;;;;5097753;28;20028;-82
2021/06/15 00:42:20;;;;;;;2.30;1.60;;;;;;;;;;5097696;28;20155;-81
2021/06/15 00:44:46;;;;;;;2.67;1.27;;;;;;;;;;5097488;28;20031;-81
2021/06/15 00:47:12;;;;;;;4.32;1.58;;;;;;;;;;5096512;28;20044;-82
2021/06/15 00:49:39;;;;;;;2.38;1.55;;;;;;;;;;5097602;28;20017;-82
2021/06/15 00:52:05;;;;;;;4.63;1.55;;;;;;;;;;5097613;28;20410;-82
2021/06/15 00:54:32;;;;;;;5.65;1.65;;;;;;;;;;5096396;28;20111;-82
2021/06/15 00:56:58;;;;;;;3.90;1.60;;;;;;;;;;5097759;28;20048;-82
2021/06/15 00:59:24;;;;;;;4.43;1.90;;;;;;;;;;5097312;28;20077;-82
2021/06/15 01:01:50;;;;;;;3.22;1.38;;;;;;;;;;5097429;28;20386;-82
2021/06/15 01:04:17;;;;;;;3.50;1.60;;;;;;;;;;5097079;28;20096;-81
2021/06/15 01:06:52;;;;;;;5.05;1.60;;;;;;;;;;5097209;28;20028;-81
2021/06/15 01:09:40;;;;;;;1.92;1.50;;;;;;;;;;5096097;28;20326;-81
2021/06/15 01:12:09;;;;;;;1.90;1.40;;;;;;;;;;5095543;28;20479;-82
2021/06/15 01:14:44;;;;;;;2.83;1.70;;;;;;;;;;5096456;28;20036;-81
2021/06/15 01:17:18;;;;;;;4.82;1.88;;;;;;;;;;5097399;28;20070;-81
2021/06/15 01:20:02;;;;;;;3.38;1.33;;;;;;;;;;5097232;28;20032;-82
2021/06/15 01:22:35;;;;;;;3.17;1.80;;;;;;;;;;5096137;28;20124;-82
2021/06/15 01:25:13;;;;;;;2.42;1.67;;;;;;;;;;5097005;28;20418;-81
2021/06/15 01:27:42;;;;;;;4.47;1.80;;;;;;;;;;5097224;28;20182;-81
2021/06/15 01:30:13;;;;;;;1.90;1.30;;;;;;;;;;5097204;28;20024;-81
2021/06/15 01:32:40;;;;;;;3.60;1.88;;;;;;;;;;5096962;28;20028;-81
2021/06/15 01:35:08;;;;;;;1.90;1.40;;;;;;;;;;5096922;28;20021;-82
2021/06/15 01:37:37;;;;;;;2.85;1.55;;;;;;;;;;5096002;28;20025;-81
2021/06/15 01:40:15;;;;;;;2.40;1.67;;;;;;;;;;5097122;28;20143;-81
2021/06/15 01:42:44;;;;;;;4.90;1.60;;;;;;;;;;5097219;28;20028;-81
2021/06/15 01:45:14;;;;;;;3.90;1.70;;;;;;;;;;5097058;28;20395;-81
2021/06/15 01:47:41;;;;;;;3.47;2.17;;;;;;;;;;5096728;28;20429;-82
2021/06/15 01:50:09;;;;;;;2.55;1.73;;;;;;;;;;5096016;28;20425;-81
2021/06/15 01:52:37;;;;;;;5.70;2.00;;;;;;;;;;5097094;28;20016;-81
2021/06/15 01:55:07;;;;;;;3.75;2.00;;;;;;;;;;5096723;28;20024;-81
2021/06/15 01:57:34;;;;;;;3.47;1.95;;;;;;;;;;5096781;28;20353;-81
2021/06/15 02:00:02;;;;;;;2.60;1.70;;;;;;;;;;5096868;28;20085;-82
2021/06/15 02:02:29;;;;;;;3.42;1.85;;;;;;;;;;5096657;28;20032;-82
2021/06/15 02:04:56;;;;;;;3.58;1.70;;;;;;;;;;5096659;28;20399;-82
2021/06/15 02:07:28;;;;;;;5.03;2.28;;;;;;;;;;5096605;28;20429;-82
2021/06/15 02:09:57;;;;;;;6.15;2.13;;;;;;;;;;5095537;28;20039;-81
2021/06/15 02:12:26;;;;;;;2.85;1.70;;;;;;;;;;5096808;28;20020;-81
2021/06/15 02:14:53;;;;;;;3.67;1.70;;;;;;;;;;5096582;28;20020;-82
2021/06/15 02:17:19;;;;;;;4.88;1.67;;;;;;;;;;5096595;28;20024;-81
2021/06/15 02:19:48;;;;;;;6.30;1.92;;;;;;;;;;5096434;28;20023;-81
2021/06/15 02:22:16;;;;;;;3.63;2.03;;;;;;;;;;5096622;28;20027;-82
2021/06/15 02:24:45;;;;;;;5.95;2.30;;;;;;;;;;5099745;28;20062;-81
2021/06/15 02:27:14;;;;;;;4.38;1.90;;;;;;;;;;5098932;28;20060;-81
2021/06/15 02:29:40;;;;;;;5.03;1.80;;;;;;;;;;5100071;28;20035;-82
2021/06/15 02:32:09;;;;;;;6.88;2.00;;;;;;;;;;5100014;28;20017;-81
2021/06/15 02:34:37;;;;;;;6.15;1.90;;;;;;;;;;5100117;28;20039;-81
2021/06/15 02:37:04;;;;;;;5.68;2.08;;;;;;;;;;5100188;28;20024;-82
2021/06/15 02:39:33;;;;;;;4.13;1.80;;;;;;;;;;5100008;28;20342;-82
2021/06/15 02:42:00;;;;;;;3.00;1.88;;;;;;;;;;5098909;28;20432;-82
2021/06/15 02:44:29;;;;;;;7.30;2.13;;;;;;;;;;5099767;28;20028;-82
2021/06/15 02:46:57;;;;;;;7.03;2.25;;;;;;;;;;5099625;28;20071;-82
2021/06/15 02:49:25;;;;;;;2.97;2.15;;;;;;;;;;5099758;28;20032;-81
2021/06/15 02:52:08;;;;;;;5.72;2.22;;;;;;;;;;5099676;28;20036;-81
2021/06/15 02:54:36;;;;;;;5.10;2.53;;;;;;;;;;5099502;28;20369;-81
2021/06/15 02:57:02;;;;;;;6.15;2.08;;;;;;;;;;5099550;28;20471;-81
2021/06/15 02:59:28;;;;;;;4.32;2.38;;;;;;;;;;5098477;28;20028;-81
2021/06/15 03:01:55;;;;;;;5.45;2.22;;;;;;;;;;5099442;28;20115;-82
2021/06/15 03:04:21;;;;;;;3.78;2.00;;;;;;;;;;5099535;28;20035;-81
2021/06/15 03:06:48;;;;;;;4.45;1.98;;;;;;;;;;5099469;28;20024;-81
2021/06/15 03:09:14;;;;;;;8.40;2.20;;;;;;;;;;5099038;28;20084;-81
2021/06/15 03:11:47;;;;;;;8.27;2.30;;;;;;;;;;5099066;28;20406;-81
2021/06/15 03:14:19;;;;;;;5.28;2.17;;;;;;;;;;5098115;28;20122;-81
2021/06/15 03:16:45;;;;;;;4.05;2.00;;;;;;;;;;5099032;28;20455;-81
2021/06/15 03:19:19;;;;;;;3.03;2.10;;;;;;;;;;5099029;28;20032;-81
2021/06/15 03:21:59;;;;;;;3.25;2.05;;;;;;;;;;5098272;28;20310;-81
2021/06/15 03:24:27;;;;;;;4.80;2.15;;;;;;;;;;5098043;28;20024;-81
2021/06/15 03:27:00;;;;;;;3.78;2.45;;;;;;;;;;5098947;28;20047;-81
2021/06/15 03:29:28;;;;;;;5.07;2.40;;;;;;;;;;5098776;28;20062;-81
2021/06/15 03:31:59;;;;;;;9.00;3.50;;;;;;;;;;5099037;28;20020;-81
2021/06/15 03:34:27;;;;;;;8.57;4.20;;;;;;;;;;5098442;28;20035;-82
2021/06/15 03:36:54;;;;;;;8.00;3.78;;;;;;;;;;5098847;28;20036;-82
2021/06/15 03:39:22;;;;;;;9.55;3.35;;;;;;;;;;5098757;28;20028;-82
2021/06/15 03:41:51;;;;;;;5.63;2.40;;;;;;;;;;5097712;28;20318;-82
2021/06/15 03:44:20;;;;;;;3.78;2.15;;;;;;;;;;5098757;28;20035;-82
2021/06/15 03:46:49;;;;;;;5.10;2.40;;;;;;;;;;5098449;28;20043;-82
2021/06/15 03:49:16;;;;;;;3.05;1.77;;;;;;;;;;5098498;28;20024;-83
2021/06/15 03:52:04;;;;;;;4.43;1.92;;;;;;;;;;5098440;28;20047;-82
2021/06/15 03:54:31;;;;;;;3.42;1.85;;;;;;;;;;5098790;28;20028;-82
2021/06/15 03:57:00;;;;;;;4.13;1.90;;;;;;;;;;5098355;28;20028;-82
2021/06/15 03:59:27;;;;;;;7.78;3.20;;;;;;;;;;5098435;28;20031;-82
2021/06/15 04:01:55;;;;;;;3.55;1.83;;;;;;;;;;5098345;28;20028;-81
2021/06/15 04:04:22;;;;;;;3.67;1.85;;;;;;;;;;5098198;28;20107;-81
2021/06/15 04:06:52;;;;;;;5.20;2.05;;;;;;;;;;5098245;28;20509;-81
2021/06/15 04:09:23;;;;;;;3.45;1.73;;;;;;;;;;5096980;28;20032;-80
2021/06/15 04:11:49;;;;;;;5.97;1.88;;;;;;;;;;5098192;28;20042;-81
2021/06/15 04:14:16;;;;;;;4.13;1.90;;;;;;;;;;5098210;28;20027;-80
2021/06/15 04:16:43;;;;;;;9.40;2.92;;;;;;;;;;5097939;28;20404;-80
2021/06/15 04:19:12;;;;;;;4.60;1.90;;;;;;;;;;5096840;28;20024;-81
2021/06/15 04:21:39;;;;;;;5.60;2.00;;;;;;;;;;5098075;28;20024;-80
2021/06/15 04:24:08;;;;;;;4.50;2.15;;;;;;;;;;5097843;28;20031;-81
2021/06/15 04:26:34;;;;;;;4.70;2.05;;;;;;;;;;5098101;28;20077;-81
2021/06/15 04:29:01;;;;;;;5.90;2.28;;;;;;;;;;5097839;28;20149;-80
2021/06/15 04:31:29;;;;;;;5.80;2.00;;;;;;;;;;5097782;28;20314;-80
2021/06/15 04:33:56;;;;;;;8.80;2.20;;;;;;;;;;5097706;28;20023;-80
2021/06/15 04:48:38;;;;;;;4.45;2.10;;;;;;;;;;5148428;27;20342;-82
2021/06/15 04:51:04;;;;;;;4.90;2.08;;;;;;;;;;5115021;28;20028;-81
2021/06/15 04:53:32;;;;;;;4.80;2.30;;;;;;;;;;5113649;28;20343;-81
2021/06/15 04:55:59;;;;;;;5.57;2.30;;;;;;;;;;5114880;28;20401;-82
2021/06/15 04:58:25;;;;;;;4.22;2.20;;;;;;;;;;5114745;28;20079;-81
2021/06/15 05:00:53;;;;;;;4.50;2.35;;;;;;;;;;5113598;28;20024;-81
2021/06/15 05:03:19;;;;;;;4.00;2.20;;;;;;;;;;5114636;28;20020;-82
2021/06/15 05:05:46;;;;;;;3.90;2.10;;;;;;;;;;5113347;28;20034;-81
2021/06/15 05:08:14;;;;;;;5.18;3.75;;;;;;;;;;5114701;28;20016;-81
2021/06/15 05:10:41;;;;;;;5.25;2.38;;;;;;;;;;5113677;28;20459;-81
2021/06/15 05:13:11;;;;;;;5.05;2.00;;;;;;;;;;5114295;28;20020;-82
2021/06/15 05:15:42;;;;;;;2.33;1.80;;;;;;;;;;5114603;28;20020;-82
2021/06/15 05:18:09;;;;;;;11.68;2.75;;;;;;;;;;5114451;28;20047;-82
2021/06/15 05:20:35;;;;;;;2.67;1.67;;;;;;;;;;5114411;28;20024;-82
2021/06/15 05:23:01;;;;;;;5.25;2.72;;;;;;;;;;5114230;28;20390;-83
2021/06/15 05:25:27;;;;;;;3.60;2.08;;;;;;;;;;5113136;28;20425;-82
2021/06/15 05:27:54;;;;;;;6.32;2.08;;;;;;;;;;5114015;28;20035;-81
2021/06/15 05:30:20;;;;;;;7.32;2.25;;;;;;;;;;5114371;28;20020;-81
2021/06/15 05:32:46;;;;;;;8.00;2.08;;;;;;;;;;5113320;28;20024;-82
2021/06/15 05:35:12;;;;;;;4.35;1.95;;;;;;;;;;5114144;28;20024;-82
2021/06/15 05:37:41;;;;;;;4.22;2.08;;;;;;;;;;5113609;28;20035;-81
2021/06/15 05:40:07;;;;;;;4.18;1.98;;;;;;;;;;5112815;28;20426;-82
2021/06/15 05:42:33;;;;;;;5.32;2.33;;;;;;;;;;5113921;28;20024;-82
2021/06/15 05:44:59;;;;;;;6.10;2.28;;;;;;;;;;5113686;28;20122;-83
2021/06/15 05:47:29;;;;;;;4.07;1.73;;;;;;;;;;5112372;28;20051;-82
2021/06/15 05:49:55;;;;;;;3.03;1.80;;;;;;;;;;5100105;28;20047;-82
2021/06/15 05:52:21;;;;;;;6.35;1.75;;;;;;;;;;5100092;28;20027;-82
2021/06/15 05:54:47;;;;;;;3.38;1.58;;;;;;;;;;5099152;28;20444;-82
2021/06/15 05:57:13;;;;;;;3.35;1.52;;;;;;;;;;5098910;28;20032;-82
2021/06/15 05:59:39;;;;;;;2.72;1.38;;;;;;;;;;5099909;28;20020;-81
2021/06/15 06:02:06;;;;;;;3.95;1.70;;;;;;;;;;5099933;28;20028;-81
2021/06/15 06:09:58;;;;;;;5.10;2.00;;;;;;;;;;5099812;28;20035;-81
2021/06/15 06:12:24;;;;;;;4.47;1.80;;;;;;;;;;5099589;28;20024;-80
2021/06/15 06:14:51;;;;;;;2.85;1.55;;;;;;;;;;5099807;28;20425;-81
2021/06/15 06:17:17;;;;;;;6.30;1.85;;;;;;;;;;5099563;28;20044;-81
2021/06/15 06:19:45;;;;;;;4.93;1.98;;;;;;;;;;5098573;28;20036;-81
2021/06/15 06:22:11;;;;;;;4.03;1.77;;;;;;;;;;5099386;28;20024;-81
2021/06/15 06:24:37;;;;;;;8.45;1.88;;;;;;;;;;5099450;28;20182;-81
2021/06/15 06:27:03;;;;;;;4.20;1.95;;;;;;;;;;5098255;28;20051;-81
2021/06/15 06:29:29;;;;;;;5.00;2.10;;;;;;;;;;5099203;28;20020;-81
2021/06/15 06:31:55;;;;;;;4.32;1.80;;;;;;;;;;5099242;28;20420;-81
2021/06/15 06:34:22;;;;;;;6.43;2.30;;;;;;;;;;5099211;28;20031;-81
2021/06/15 06:36:48;;;;;;;7.68;2.00;;;;;;;;;;5099157;28;20020;-81
2021/06/15 06:39:14;;;;;;;5.50;1.77;;;;;;;;;;5098020;28;20024;-81
2021/06/15 06:41:40;;;;;;;3.20;1.90;;;;;;;;;;5099330;28;20040;-81
2021/06/15 06:44:06;;;;;;;3.72;1.92;;;;;;;;;;5099162;28;20028;-81
2021/06/15 06:46:32;;;;;;;5.55;1.98;;;;;;;;;;5098976;28;20118;-79
2021/06/15 06:48:58;;;;;;;7.60;2.33;;;;;;;;;;5098887;28;20028;-78
2021/06/15 06:51:24;;;;;;;9.40;6.28;;;;;;;;;;5098760;28;20024;-81
2021/06/15 06:53:52;;;;;;;6.43;2.20;;;;;;;;;;5098897;28;20027;-81
2021/06/15 06:56:18;;;;;;;7.78;2.65;;;;;;;;;;5098991;28;20024;-81
2021/06/15 06:58:46;;;;;;;4.85;3.05;;;;;;;;;;5098057;28;20427;-79
2021/06/15 07:01:12;;;;;;;7.40;2.03;;;;;;;;;;5097722;28;20055;-80
2021/06/15 07:03:39;;;;;;;6.50;3.08;;;;;;;;;;5098533;28;20058;-82
2021/06/15 07:06:05;;;;;;;4.93;2.63;;;;;;;;;;5098309;28;20317;-80
2021/06/15 07:08:31;;;;;;;11.82;5.88;;;;;;;;;;5098490;28;20024;-81
2021/06/15 07:10:57;;;;;;;11.82;2.95;;;;;;;;;;5098853;28;20081;-79
2021/06/15 07:13:23;;;;;;;5.22;2.47;;;;;;;;;;5098438;28;20020;-79
2021/06/15 07:15:50;;;;;;;19.88;4.43;;;;;;;;;;5098490;28;20092;-80
2021/06/15 07:18:16;;;;;;;9.07;2.85;;;;;;;;;;5098592;28;20020;-79
2021/06/15 07:20:42;;;;;;;16.15;3.50;;;;;;;;;;5098522;28;20032;-80
2021/06/15 07:23:08;;;;;;;9.60;2.40;;;;;;;;;;5098084;28;20024;-80
2021/06/15 07:25:35;;;;;;;19.80;2.95;;;;;;;;;;5098311;28;20028;-80
2021/06/15 07:28:01;;;;;;;75.82;6.07;;;;;;;;;;5098100;28;20070;-79
2021/06/15 07:30:28;;;;;;;3.40;1.80;;;;;;;;;;5098201;28;20321;-80
2021/06/15 07:32:57;;;;;;;7.57;2.10;;;;;;;;;;5097090;28;20310;-80
2021/06/15 07:35:24;;;;;;;5.05;1.88;;;;;;;;;;5097192;28;20023;-80
2021/06/15 07:37:50;;;;;;;17.10;3.00;;;;;;;;;;5098097;28;20016;-80
2021/06/15 07:40:22;;;;;;;6.72;1.92;;;;;;;;;;5098293;28;20055;-81
2021/06/15 07:42:48;;;;;;;6.45;2.13;;;;;;;;;;5097975;28;20032;-80
2021/06/15 07:45:14;;;;;;;7.03;2.17;;;;;;;;;;5097901;28;20417;-80
2021/06/15 07:47:41;;;;;;;6.88;1.85;;;;;;;;;;5097502;28;20113;-80
2021/06/15 07:50:07;;;;;;;5.53;2.08;;;;;;;;;;5097106;28;20171;-81
2021/06/15 07:52:34;;;;;;;10.20;3.67;;;;;;;;;;5097879;28;20024;-80
2021/06/15 07:55:00;;;;;;;4.15;2.20;;;;;;;;;;5097752;28;20024;-82
2021/06/15 07:57:26;;;;;;;10.18;2.15;;;;;;;;;;5097660;28;20020;-82
2021/06/15 07:59:52;;;;;;;6.13;1.70;;;;;;;;;;5097355;28;20024;-82
2021/06/15 08:02:18;;;;;;;14.13;2.92;;;;;;;;;;5097831;28;20035;-80
2021/06/15 08:04:45;;;;;;;7.50;1.80;;;;;;;;;;5097584;28;20493;-80
2021/06/15 08:07:29;;;;;;;9.20;2.75;;;;;;;;;;5096371;28;20118;-80
2021/06/15 08:09:56;;;;;;;2.80;1.75;;;;;;;;;;5097809;28;20019;-80
2021/06/15 08:12:22;;;;;;;6.57;1.70;;;;;;;;;;5097486;28;20020;-80
2021/06/15 08:14:48;;;;;;;7.38;3.22;;;;;;;;;;5097499;28;20024;-81
2021/06/15 08:17:14;;;;;;;6.85;2.35;;;;;;;;;;5096715;28;20044;-81
2021/06/15 08:19:40;;;;;;;6.35;2.10;;;;;;;;;;5096726;28;20341;-81
2021/06/15 08:22:07;;;;;;;4.35;1.55;;;;;;;;;;5096436;28;20413;-81
2021/06/15 08:24:33;;;;;;;2.85;1.85;;;;;;;;;;5097414;28;20031;-80
2021/06/15 08:26:59;;;;;;;5.80;1.67;;;;;;;;;;5097255;28;20024;-81
2021/06/15 08:29:25;;;;;;;3.40;1.70;;;;;;;;;;5097449;28;20047;-81
2021/06/15 08:31:52;;;;;;;6.72;2.08;;;;;;;;;;5097424;28;20012;-81
2021/06/15 08:34:18;;;;;;;4.95;1.58;;;;;;;;;;5097495;28;20021;-81
2021/06/15 08:36:44;;;;;;;6.32;2.17;;;;;;;;;;5096229;28;20413;-81
2021/06/15 08:39:10;;;;;;;5.13;1.75;;;;;;;;;;5097377;28;20028;-80
2021/06/15 08:41:37;;;;;;;4.68;1.48;;;;;;;;;;5096216;28;20416;-81
2021/06/15 08:44:04;;;;;;;5.57;1.80;;;;;;;;;;5097353;28;20028;-80
2021/06/15 08:46:31;;;;;;;6.80;1.63;;;;;;;;;;5096608;28;20063;-81
2021/06/15 08:48:57;;;;;;;4.85;1.80;;;;;;;;;;5097448;28;20353;-81
2021/06/15 08:51:23;;;;;;;2.85;1.83;;;;;;;;;;5097163;28;20025;-81
2021/06/15 08:53:53;;;;;;;8.95;2.90;;;;;;;;;;5097363;28;20372;-80
2021/06/15 08:56:31;;;;;;;4.07;1.70;;;;;;;;;;5096972;28;20405;-80
2021/06/15 08:59:10;;;;;;;9.15;1.80;;;;;;;;;;5097115;28;20036;-80
2021/06/15 09:01:37;;;;;;;2.53;1.42;;;;;;;;;;5097219;28;20024;-81
2021/06/15 09:04:03;;;;;;;2.88;1.50;;;;;;;;;;5096836;28;20028;-80
2021/06/15 09:06:31;;;;;;;5.03;1.58;;;;;;;;;;5096825;28;20032;-81
2021/06/15 09:08:58;;;;;;;4.30;1.50;;;;;;;;;;5095865;28;20414;-80
2021/06/15 09:11:25;;;;;;;3.83;1.73;;;;;;;;;;5097037;28;20057;-80
2021/06/15 09:13:51;;;;;;;3.75;1.77;;;;;;;;;;5095478;28;20417;-81
2021/06/15 09:16:35;;;;;;;4.38;1.73;;;;;;;;;;5097081;28;20063;-81
2021/06/15 09:19:13;;;;;;;6.10;2.10;;;;;;;;;;5096753;28;20042;-80
2021/06/15 09:21:40;;;;;;;4.28;2.08;;;;;;;;;;5096746;28;20279;-80
2021/06/15 09:24:06;;;;;;;9.85;3.05;;;;;;;;;;5098892;28;20089;-79
2021/06/15 09:27:10;;;;;;;2.90;1.48;;;;;;;;;;5100727;28;20095;-80
2021/06/15 09:29:36;;;;;;;3.80;1.48;;;;;;;;;;5098658;28;20020;-80
2021/06/15 09:32:03;;;;;;;3.85;1.63;;;;;;;;;;5098633;28;20325;-80
2021/06/15 09:34:29;;;;;;;3.67;2.30;;;;;;;;;;5098389;28;20069;-80
2021/06/15 09:36:55;;;;;;;7.20;3.95;;;;;;;;;;5088605;28;20028;-81
2021/06/15 09:39:21;;;;;;;9.27;5.65;;;;;;;;;;5088016;28;20050;-80
2021/06/15 09:41:48;;;;;;;5.18;2.63;;;;;;;;;;5098070;28;20430;-78
2021/06/15 09:44:19;;;;;;;3.60;1.77;;;;;;;;;;5098423;28;20047;-78
2021/06/15 09:46:50;;;;;;;8.10;2.47;;;;;;;;;;5080923;28;20040;-78
2021/06/15 09:49:31;;;;;;;7.13;4.22;;;;;;;;;;5098209;28;20062;-78
2021/06/15 09:52:16;;;;;;;15.93;5.93;;;;;;;;;;5098016;28;20360;-79
2021/06/15 09:54:43;;;;;;;23.92;16.08;;;;;;;;;;5081177;28;20103;-79
2021/06/15 09:57:10;;;;;;;12.75;7.82;;;;;;;;;;5098211;28;20027;-79
2021/06/15 09:59:37;;;;;;;11.15;5.07;;;;;;;;;;5077758;28;20041;-78
2021/06/15 10:02:03;;;;;;;10.48;5.68;;;;;;;;;;5078697;28;20032;-78
2021/06/15 10:04:29;;;;;;;7.60;3.00;;;;;;;;;;5078749;28;20056;-83
2021/06/15 10:06:57;;;;;;;3.95;2.55;;;;;;;;;;5079227;28;20318;-79
2021/06/15 10:09:23;;;;;;;13.80;10.27;;;;;;;;;;5079561;28;20044;-79
2021/06/15 10:11:50;;;;;;;4.03;1.55;;;;;;;;;;5079589;28;20449;-79
2021/06/15 10:14:17;;;;;;;3.13;1.45;;;;;;;;;;5079574;28;20025;-79
2021/06/15 10:16:43;;;;;;;7.07;2.17;;;;;;;;;;5079444;28;20036;-79
2021/06/15 10:19:10;;;;;;;7.53;2.30;;;;;;;;;;5079457;28;20035;-79
2021/06/15 10:21:36;;;;;;;3.38;2.00;;;;;;;;;;5078513;28;20041;-79
2021/06/15 10:24:08;;;;;;;2.53;1.60;;;;;;;;;;5078262;28;20032;-79
2021/06/15 10:26:34;;;;;;;2.83;1.35;;;;;;;;;;5079072;28;20350;-79
2021/06/15 10:29:01;;;;;;;3.75;1.10;;;;;;;;;;5078122;28;20073;-79
2021/06/15 10:31:32;;;;;;;2.85;1.50;;;;;;;;;;5078084;28;20037;-78
2021/06/15 10:33:58;;;;;;;9.93;3.58;;;;;;;;;;5078877;28;20108;-79
2021/06/15 10:36:44;;;;;;;8.18;2.47;;;;;;;;;;5078327;28;20032;-79
2021/06/15 10:39:16;;;;;;;17.30;13.27;;;;;;;;;;5078983;28;20074;-79
2021/06/15 10:41:43;;;;;;;26.42;17.58;;;;;;;;;;5078982;28;20031;-80
2021/06/15 10:44:10;;;;;;;16.05;10.82;;;;;;;;;;5078664;28;20017;-79
2021/06/15 10:46:40;;;;;;;2.72;1.50;;;;;;;;;;5078504;28;20044;-79
2021/06/15 10:49:13;;;;;;;3.15;1.33;;;;;;;;;;5078809;28;20028;-78
2021/06/15 10:51:55;;;;;;;2.90;1.40;;;;;;;;;;5078624;28;20314;-79
2021/06/15 10:54:30;;;;;;;4.85;1.52;;;;;;;;;;5078604;28;20059;-79
2021/06/15 10:57:15;;;;;;;3.28;1.65;;;;;;;;;;5077650;28;20028;-79
2021/06/15 10:59:57;;;;;;;2.60;1.40;;;;;;;;;;5078500;28;20021;-78
2021/06/15 11:02:26;;;;;;;3.67;1.33;;;;;;;;;;5078371;28;20403;-78
2021/06/15 11:04:52;;;;;;;3.83;1.75;;;;;;;;;;5078466;28;20103;-78
2021/06/15 11:07:34;;;;;;;2.72;1.58;;;;;;;;;;5077289;28;20029;-79
2021/06/15 11:10:00;;;;;;;5.90;1.23;;;;;;;;;;5078289;28;20021;-78
2021/06/15 11:12:26;;;;;;;3.38;1.38;;;;;;;;;;5078329;28;20074;-78
2021/06/15 11:15:11;;;;;;;4.15;1.35;;;;;;;;;;5078368;28;20378;-78
2021/06/15 11:17:47;;;;;;;2.90;1.67;;;;;;;;;;5078284;28;20040;-79
2021/06/15 11:20:13;;;;;;;5.03;1.90;;;;;;;;;;5078120;28;20063;-78
2021/06/15 11:22:40;;;;;;;3.03;1.45;;;;;;;;;;5076963;28;20119;-79
2021/06/15 11:25:06;;;;;;;3.13;1.50;;;;;;;;;;5078303;28;20429;-78
2021/06/15 11:27:33;;;;;;;13.50;5.35;;;;;;;;;;5077366;28;20135;-79
2021/06/15 11:30:12;;;;;;;7.75;1.52;;;;;;;;;;5077812;28;20430;-79
2021/06/15 11:32:38;;;;;;;4.28;1.60;;;;;;;;;;5077911;28;20107;-78
2021/06/15 11:35:04;;;;;;;5.68;1.85;;;;;;;;;;5076835;28;20055;-78
2021/06/15 11:37:33;;;;;;;6.78;1.40;;;;;;;;;;5076736;28;20032;-79
2021/06/15 11:40:20;;;;;;;2.35;1.33;;;;;;;;;;5077707;28;20035;-79
2021/06/15 11:42:50;;;;;;;10.70;3.08;;;;;;;;;;5077648;28;20028;-79
2021/06/15 11:45:22;;;;;;;3.35;1.52;;;;;;;;;;5077435;28;20091;-79
2021/06/15 11:47:51;;;;;;;3.50;1.50;;;;;;;;;;5076142;28;20056;-78
2021/06/15 11:50:23;;;;;;;4.03;1.42;;;;;;;;;;5076592;28;20035;-80
2021/06/15 11:52:58;;;;;;;3.38;1.63;;;;;;;;;;5077424;28;20048;-79
2021/06/15 11:55:26;;;;;;;3.38;1.50;;;;;;;;;;5076489;28;20118;-79
2021/06/15 11:57:56;;;;;;;3.35;1.45;;;;;;;;;;5076494;28;20021;-79
2021/06/15 12:00:22;;;;;;;4.20;1.20;;;;;;;;;;5077546;28;20024;-78
2021/06/15 12:02:48;;;;;;;10.40;4.28;;;;;;;;;;5077598;28;20145;-78
2021/06/15 12:05:16;;;;;;;2.58;1.23;;;;;;;;;;5077026;28;20418;-78
2021/06/15 12:07:51;;;;;;;15.65;6.20;;;;;;;;;;5077527;28;20359;-79
2021/06/15 12:10:17;;;;;;;2.78;1.50;;;;;;;;;;5077221;28;20327;-79
2021/06/15 12:12:58;;;;;;;7.10;3.33;;;;;;;;;;5077286;28;20460;-78
2021/06/15 12:15:26;;;;;;;4.82;2.20;;;;;;;;;;5077252;28;20091;-79
2021/06/15 12:17:52;;;;;;;4.00;1.77;;;;;;;;;;5077457;28;20059;-79
2021/06/15 12:20:26;;;;;;;4.72;1.92;;;;;;;;;;5076058;28;20028;-78
2021/06/15 12:22:54;;;;;;;12.82;1.90;;;;;;;;;;5077214;28;20025;-79
2021/06/15 12:25:27;;;;;;;5.55;1.55;;;;;;;;;;5077146;28;20025;-79
2021/06/15 12:28:10;;;;;;;4.25;1.20;;;;;;;;;;5077125;28;20108;-79
2021/06/15 12:30:40;;;;;;;4.82;2.00;;;;;;;;;;5077259;28;20017;-79
2021/06/15 12:33:06;;;;;;;5.65;1.45;;;;;;;;;;5077170;28;20017;-79
2021/06/15 12:35:32;;;;;;;5.03;1.80;;;;;;;;;;5077190;28;20125;-79
2021/06/15 12:37:58;;;;;;;2.30;1.30;;;;;;;;;;5076248;28;20037;-79
2021/06/15 12:40:24;;;;;;;3.03;1.20;;;;;;;;;;5076901;28;20120;-79
2021/06/15 12:42:51;;;;;;;5.50;1.67;;;;;;;;;;5076977;28;20310;-79
2021/06/15 12:45:17;;;;;;;4.40;1.60;;;;;;;;;;5076762;28;20028;-79
2021/06/15 12:47:44;;;;;;;9.55;2.97;;;;;;;;;;5075494;28;20079;-79
2021/06/15 12:50:22;;;;;;;30.48;14.98;;;;;;;;;;5075806;28;20024;-79
2021/06/15 12:52:49;;;;;;;10.45;3.85;;;;;;;;;;5076298;28;20028;-79
2021/06/15 12:55:17;;;;;;;11.40;3.67;;;;;;;;;;5076630;28;20031;-78
2021/06/15 12:58:00;;;;;;;10.95;4.20;;;;;;;;;;5077111;28;20048;-79
2021/06/15 13:00:26;;;;;;;3.17;1.30;;;;;;;;;;5080904;28;20028;-79
2021/06/15 13:03:05;;;;;;;8.93;3.10;;;;;;;;;;5081199;28;20153;-78
2021/06/15 13:05:32;;;;;;;7.18;1.95;;;;;;;;;;5099705;28;20062;-78
2021/06/15 13:07:59;;;;;;;2.67;1.40;;;;;;;;;;5100561;28;20092;-78
2021/06/15 13:10:25;;;;;;;7.82;1.80;;;;;;;;;;5099678;28;20020;-78
2021/06/15 13:12:53;;;;;;;8.48;3.60;;;;;;;;;;5100643;28;20286;-78
2021/06/15 13:15:23;;;;;;;3.42;1.17;;;;;;;;;;5100700;28;20085;-79
2021/06/15 13:17:55;;;;;;;3.70;1.35;;;;;;;;;;5100547;28;20028;-78
2021/06/15 13:20:23;;;;;;;8.98;3.70;;;;;;;;;;5099297;28;20051;-77
2021/06/15 13:22:49;;;;;;;9.88;2.35;;;;;;;;;;5100247;28;20024;-78
2021/06/15 13:25:26;;;;;;;3.42;1.25;;;;;;;;;;5100667;28;20024;-79
2021/06/15 13:27:57;;;;;;;12.32;5.22;;;;;;;;;;5100529;28;20032;-79
2021/06/15 13:30:25;;;;;;;11.15;6.70;;;;;;;;;;5084991;28;20025;-79
2021/06/15 13:33:14;;;;;;;25.55;20.08;;;;;;;;;;5080796;28;20016;-78
2021/06/15 13:35:47;;;;;;;4.68;1.27;;;;;;;;;;5099883;28;20025;-79
2021/06/15 13:38:17;;;;;;;5.50;1.20;;;;;;;;;;5099333;28;20028;-79
2021/06/15 13:40:50;;;;;;;6.57;1.15;;;;;;;;;;5100466;28;20407;-78
2021/06/15 13:43:16;;;;;;;2.05;1.20;;;;;;;;;;5100261;28;20044;-79
2021/06/15 13:45:43;;;;;;;3.50;1.70;;;;;;;;;;5099979;28;20028;-79
2021/06/15 13:48:10;;;;;;;9.93;4.30;;;;;;;;;;5099917;28;20036;-80
2021/06/15 13:50:36;;;;;;;7.82;3.35;;;;;;;;;;5099225;28;20065;-79
2021/06/15 13:53:03;;;;;;;7.00;3.33;;;;;;;;;;5100245;28;20047;-80
2021/06/15 13:55:31;;;;;;;1.77;0.90;;;;;;;;;;5099945;28;20052;-79
2021/06/15 13:57:57;;;;;;;7.35;2.40;;;;;;;;;;5099968;28;20048;-80
2021/06/15 14:00:23;;;;;;;2.13;1.35;;;;;;;;;;5100286;28;20048;-79
2021/06/15 14:02:50;;;;;;;3.08;1.48;;;;;;;;;;5099651;28;20024;-79
2021/06/15 14:05:20;;;;;;;3.63;1.08;;;;;;;;;;5098986;28;20024;-79
2021/06/15 14:07:46;;;;;;;3.40;1.20;;;;;;;;;;5099766;28;20052;-79
2021/06/15 14:10:13;;;;;;;1.42;1.20;;;;;;;;;;5099295;28;20425;-79
2021/06/15 14:12:40;;;;;;;7.15;1.20;;;;;;;;;;5099249;28;20031;-79
2021/06/15 14:15:06;;;;;;;8.95;3.50;;;;;;;;;;5099732;28;20099;-78
2021/06/15 14:17:33;;;;;;;2.30;1.13;;;;;;;;;;5099864;28;20446;-78
2021/06/15 14:20:00;;;;;;;2.45;1.10;;;;;;;;;;5099432;28;20463;-78
2021/06/15 14:22:26;;;;;;;5.13;1.40;;;;;;;;;;5098510;28;20020;-78
2021/06/15 14:24:52;;;;;;;3.88;1.92;;;;;;;;;;5099604;28;20115;-79
2021/06/15 14:27:22;;;;;;;4.47;1.60;;;;;;;;;;5099481;28;20024;-78
2021/06/15 14:29:48;;;;;;;3.60;2.30;;;;;;;;;;5099157;28;20318;-79
2021/06/15 14:32:14;;;;;;;4.85;1.90;;;;;;;;;;5098630;28;20141;-78
2021/06/15 14:34:41;;;;;;;6.18;3.50;;;;;;;;;;5099390;28;20291;-78
2021/06/15 14:37:08;;;;;;;6.53;2.88;;;;;;;;;;5099306;28;20020;-79
2021/06/15 14:39:34;;;;;;;2.33;1.42;;;;;;;;;;5099335;28;20057;-78
2021/06/15 14:42:02;;;;;;;4.85;2.15;;;;;;;;;;5099155;28;20314;-78
2021/06/15 14:44:28;;;;;;;6.43;1.70;;;;;;;;;;5098996;28;20023;-78
2021/06/15 14:46:54;;;;;;;5.13;1.83;;;;;;;;;;5098910;28;20040;-78
2021/06/15 14:49:20;;;;;;;1.52;1.20;;;;;;;;;;5098198;28;20029;-77
2021/06/15 14:51:46;;;;;;;3.97;1.63;;;;;;;;;;5098201;28;20028;-78
2021/06/15 14:54:12;;;;;;;5.15;2.20;;;;;;;;;;5097897;28;20473;-78
2021/06/15 14:56:39;;;;;;;4.43;1.70;;;;;;;;;;5097973;28;20361;-78
2021/06/15 14:59:05;;;;;;;5.68;1.30;;;;;;;;;;5098930;28;20417;-78
2021/06/15 15:01:31;;;;;;;8.18;1.75;;;;;;;;;;5098756;28;20038;-78
2021/06/15 15:03:57;;;;;;;7.40;1.67;;;;;;;;;;5098697;28;20059;-78
2021/06/15 15:06:24;;;;;;;7.93;1.80;;;;;;;;;;5097826;28;20069;-78